aviador You're here:

PAMY Decoded Metar

MEKORYUK in AK, USA
Report Time2018-01-16 12:56:00
UTC Time2018-01-16 13:13:35
Flight Rules ifr IFR
Wind320° at 10 kt
W.Decomp.*RWY 23: 2.2 kt HW 9.7 kt RCW
W.Rank320° ranks 10
Current wind is below 320° avg. (11.2)
Visibility3219 m
Phenomena:Light Snow
Mist
Clouds:Broken 005 Hf
Overcast 013 Hf
Ceiling500 ft
Temp-2°C (ISA -17)
Dew Point-2°C (100% RH)
AAT-7.9°C
QNH996 hPa
Density Alt-1,375 ft
Elevation43 ft
Report Wrong Elevation
Raw Report
PAMY 161256Z AUTO 32010KT 2SM -SN BR BKN005 OVC013 M02/M02 A2940
RMK AO2 SLP959 P0000 T10221022 FZRANO=

Extra information for PAMY:More info

Metar Taf Metar & Taf Last 4 Metars F.Rules Stats Wind Profile Meteogram Temp Stats Airport Information Weather charts Add Link Nearby VenuesMetar ALERT Operation Metar Decoded Social comments

AIRNAV info for PAMY